Latest Weather Observations for Esperance

IDW60801

Issued at 2:03 pm WST Sunday 22 October 2017 (issued every 30 minutes, with the page automatically refreshed every 10 minutes)

About weather observations | Map of weather stations | Latest weather observations for WA | Other Formats
Station Details ID: 009789 Name: ESPERANCE Lat: -33.83 Lon: 121.89 Height: 25.0 m
Data from the previous 72 hours. | See also: Recent months at Esperance
Date/Time
WST
Temp
°C
App
Temp
°C
Dew
Point
°C
Rel
Hum
%
Delta-T
°C
Wind Press
QNH
hPa
Press
MSL
hPa
Rain since
9am
mm
Dir  Spd
km/h
Gust
km/h
Spd
kts
Gust
kts
22/02:00pm 15.4 14.2 15.1 98 0.2 ESE 15 22 8 12 1015.3 1015.3 12.0
22/01:30pm 15.0 15.1 14.5 97 0.3 SSE 7 9 4 5 1017.0 1016.9 10.0
22/01:26pm 15.0 15.3 14.6 97 0.2 SW 6 9 3 5 1017.1 1017.0 9.8
22/01:07pm 15.3 13.5 14.4 94 0.5 WSW 17 30 9 16 1018.2 1018.1 6.2
22/01:02pm 15.3 13.6 14.6 96 0.4 WSW 17 30 9 16 1017.3 1017.2 5.6
22/01:00pm 15.4 13.6 14.5 94 0.5 WSW 17 30 9 16 1017.4 1017.3 5.6
22/12:57pm 15.6 13.9 14.7 94 0.5 SSW 17 26 9 14 1017.2 1017.1 5.6
22/12:30pm 15.5 13.6 14.1 91 0.8 SE 17 24 9 13 1015.1 1015.1 5.2
22/12:06pm 15.8 12.6 14.2 90 0.9 SE 24 33 13 18 1013.9 1013.9 5.2
22/12:00pm 15.8 12.1 14.0 89 1.0 SE 26 39 14 21 1013.7 1013.7 5.2
22/11:30am 15.9 12.5 13.8 87 1.2 ESE 24 33 13 18 1014.7 1014.7 5.2
22/11:00am 15.3 12.9 13.7 90 0.9 E 19 32 10 17 1015.6 1015.5 5.2
22/10:38am 14.7 12.7 13.8 94 0.5 E 17 28 9 15 1016.6 1016.5 5.2
22/10:30am 14.2 11.8 13.7 97 0.3 E 19 30 10 16 1016.5 1016.4 5.2
22/10:23am 14.0 11.5 13.6 97 0.2 E 19 28 10 15 1016.9 1016.8 5.0
22/10:00am 14.0 12.2 13.3 96 0.4 ESE 15 22 8 12 1018.9 1018.8 3.8
22/09:30am 14.3 13.3 13.4 94 0.5 ESE 11 15 6 8 1020.8 1020.7 1.6
22/09:01am 14.9 15.2 13.5 91 0.8 NE 4 9 2 5 1022.0 1021.9 0.0
22/09:00am 15.0 15.8 13.6 91 0.8 NE 2 9 1 5 1021.9 1021.8 1.6
22/08:30am 14.7 14.3 12.9 89 1.0 E 7 11 4 6 1021.2 1021.1 1.4
22/08:07am 14.7 14.9 13.1 90 0.9 ESE 4 9 2 5 1021.1 1021.0 1.4
22/08:00am 14.9 15.9 13.1 89 1.0 CALM 0 0 0 0 1021.2 1021.1 1.2
22/07:40am 15.3 16.3 13.3 88 1.1 CALM 0 0 0 0 1021.6 1021.5 0.8
22/07:30am 15.1 15.9 12.5 84 1.4 CALM 0 6 0 3 1021.4 1021.3 0.6
22/07:00am 14.7 14.3 13.1 90 0.9 E 7 9 4 5 1020.8 1020.7 0.6
22/06:30am 14.2 14.4 13.1 93 0.6 SW 4 7 2 4 1020.9 1020.8 0.6
22/06:00am 14.3 12.6 12.5 89 1.0 SW 13 17 7 9 1020.8 1020.7 0.4
22/05:30am 14.9 14.6 11.5 80 1.8 SE 4 7 2 4 1020.3 1020.2 0.0
22/05:00am 15.1 13.8 11.2 77 2.1 E 9 13 5 7 1019.2 1019.1 0.0
22/04:30am 15.2 13.9 11.1 76 2.2 E 9 15 5 8 1018.8 1018.7 0.0
22/04:00am 15.4 12.5 11.1 75 2.3 NE 17 22 9 12 1018.7 1018.6 0.0
22/03:30am 15.9 13.2 10.4 70 2.9 NE 15 26 8 14 1019.0 1018.9 0.0
22/03:00am 15.9 13.6 10.4 70 2.9 ENE 13 20 7 11 1019.0 1018.9 0.0
22/02:30am 15.9 13.6 10.4 70 2.9 NE 13 22 7 12 1018.5 1018.4 0.0
22/02:00am 15.8 12.8 10.5 71 2.8 NE 17 24 9 13 1018.8 1018.7 0.0
22/01:30am 15.8 13.1 10.5 71 2.8 NE 15 24 8 13 1019.3 1019.2 0.0
22/01:00am 15.8 12.3 10.3 70 2.9 NE 19 28 10 15 1019.8 1019.7 0.0
22/12:30am 15.6 12.5 10.3 70 2.8 NE 17 28 9 15 1020.0 1019.9 0.0
22/12:00am 15.4 13.1 10.5 72 2.6 ENE 13 20 7 11 1020.3 1020.2 0.0
 
Date/Time
WST
Temp
°C
App
Temp
°C
Dew
Point
°C
Rel
Hum
%
Delta-T
°C
Wind Press
QNH
hPa
Press
MSL
hPa
Rain since
9am
mm
Dir  Spd
km/h
Gust
km/h
Spd
kts
Gust
kts
21/11:30pm 15.4 13.0 10.2 71 2.7 ENE 13 20 7 11 1020.6 1020.5 0.0
21/11:00pm 15.3 12.9 9.9 70 2.8 E 13 19 7 10 1020.8 1020.7 0.0
21/10:30pm 15.4 12.5 9.8 69 2.9 E 15 24 8 13 1021.6 1021.5 0.0
21/10:00pm 15.6 12.4 9.8 68 3.0 ENE 17 32 9 17 1022.1 1022.0 0.0
21/09:30pm 15.9 12.6 9.5 66 3.3 E 17 24 9 13 1022.7 1022.6 0.0
21/09:00pm 16.3 12.6 9.6 64 3.5 E 19 30 10 16 1023.0 1022.9 0.0
21/08:30pm 16.8 13.5 9.5 62 3.8 E 17 32 9 17 1023.3 1023.2 0.0
21/08:00pm 16.7 14.0 11.7 72 2.7 ESE 17 24 9 13 1023.6 1023.5 0.0
21/07:30pm 16.9 13.3 11.9 72 2.7 ESE 22 28 12 15 1023.0 1022.9 0.0
21/07:00pm 17.1 13.9 11.8 71 2.9 ESE 20 30 11 16 1022.9 1022.8 0.0
21/06:30pm 17.2 13.7 12.3 73 2.7 ESE 22 30 12 16 1022.7 1022.6 0.0
21/06:00pm 17.4 13.5 12.1 71 2.9 ESE 24 35 13 19 1021.9 1021.8 0.0
21/05:30pm 17.6 13.4 12.3 71 2.9 ESE 26 37 14 20 1021.7 1021.6 0.0
21/05:00pm 18.1 13.4 12.1 68 3.3 ESE 28 43 15 23 1021.7 1021.6 0.0
21/04:30pm 18.6 14.1 12.5 67 3.4 ESE 28 39 15 21 1022.0 1021.9 0.0
21/04:00pm 19.5 14.8 12.1 62 4.1 SE 28 41 15 22 1022.2 1022.1 0.0
21/03:30pm 19.7 14.9 12.8 64 3.9 SE 30 43 16 23 1022.7 1022.6 0.0
21/03:00pm 21.0 16.0 12.3 57 4.9 SE 30 41 16 22 1023.0 1022.9 0.0
21/02:30pm 21.2 16.5 11.9 55 5.2 SE 28 39 15 21 1023.1 1023.0 0.0
21/02:00pm 21.4 16.4 12.1 55 5.2 SE 30 39 16 21 1023.6 1023.5 0.0
21/01:30pm 21.9 17.5 11.7 52 5.7 SE 26 37 14 20 1023.8 1023.7 0.0
21/01:00pm 22.5 17.7 10.4 46 6.6 SE 26 35 14 19 1023.9 1023.8 0.0
21/12:30pm 22.4 17.6 10.3 46 6.6 SE 26 33 14 18 1024.1 1024.0 0.0
21/12:00pm 23.3 17.8 5.9 32 8.8 SE 24 30 13 16 1024.8 1024.7 0.0
21/11:30am 22.9 17.8 6.1 33 8.5 SE 22 33 12 18 1025.4 1025.3 0.0
21/11:00am 22.2 18.7 5.5 33 8.3 ENE 13 24 7 13 1026.0 1026.0 0.0
21/10:30am 21.5 17.6 7.0 39 7.4 ENE 17 26 9 14 1026.5 1026.5 0.0
21/10:00am 21.1 17.5 6.9 39 7.2 ENE 15 24 8 13 1026.9 1026.9 0.0
21/09:30am 19.8 15.9 7.1 43 6.4 ENE 17 26 9 14 1027.4 1027.4 0.0
21/09:00am 19.1 15.3 7.7 47 5.8 ENE 17 30 9 16 1027.8 1027.8 0.0
21/08:30am 17.5 13.5 8.3 54 4.7 NE 19 32 10 17 1028.2 1028.2 0.0
21/08:00am 15.7 11.7 8.1 60 3.8 NE 19 32 10 17 1028.3 1028.3 0.0
21/07:30am 14.6 11.2 9.1 69 2.8 NE 17 28 9 15 1028.4 1028.4 0.0
21/07:00am 12.9 10.2 8.9 76 2.0 E 13 17 7 9 1028.5 1028.5 0.0
21/06:30am 11.8 9.5 9.0 83 1.4 E 11 15 6 8 1028.8 1028.8 0.0
21/06:00am 10.7 8.3 8.7 87 1.0 E 11 13 6 7 1028.8 1028.8 0.0
21/05:30am 9.7 7.2 8.2 90 0.7 ESE 11 13 6 7 1028.7 1028.7 0.0
21/05:00am 9.5 6.6 8.3 92 0.6 E 13 17 7 9 1028.6 1028.6 0.0
21/04:30am 9.7 6.8 8.2 90 0.7 E 13 17 7 9 1028.2 1028.2 0.0
21/04:00am 9.3 6.8 8.0 92 0.6 ESE 11 15 6 8 1028.2 1028.2 0.0
21/03:30am 9.4 6.9 8.4 93 0.5 E 11 15 6 8 1028.2 1028.2 0.0
21/03:00am 9.6 7.1 8.4 92 0.6 E 11 17 6 9 1028.3 1028.3 0.0
21/02:30am 10.0 7.5 8.3 89 0.8 E 11 17 6 9 1028.6 1028.6 0.0
21/02:00am 10.3 7.5 8.4 88 0.9 E 13 19 7 10 1028.9 1028.9 0.0
21/01:30am 10.5 7.4 8.7 89 0.9 E 15 20 8 11 1028.9 1028.9 0.0
21/01:00am 10.9 8.1 8.7 86 1.1 E 13 19 7 10 1028.9 1028.9 0.0
21/12:30am 10.9 8.1 8.7 86 1.1 ESE 13 19 7 10 1029.2 1029.2 0.0
21/12:00am 11.2 8.8 8.8 85 1.2 ESE 11 17 6 9 1029.3 1029.3 0.0
 
Date/Time
WST
Temp
°C
App
Temp
°C
Dew
Point
°C
Rel
Hum
%
Delta-T
°C
Wind Press
QNH
hPa
Press
MSL
hPa
Rain since
9am
mm
Dir  Spd
km/h
Gust
km/h
Spd
kts
Gust
kts
20/11:30pm 11.7 8.9 8.7 82 1.5 E 13 20 7 11 1029.4 1029.4 0.0
20/11:00pm 12.0 9.6 8.8 81 1.6 E 11 17 6 9 1029.8 1029.8 0.0
20/10:30pm 12.6 9.5 8.8 77 1.9 E 15 22 8 12 1029.9 1029.9 0.0
20/10:00pm 13.0 9.5 8.8 75 2.1 ESE 17 24 9 13 1030.0 1030.0 0.0
20/09:30pm 13.3 9.8 8.7 73 2.3 E 17 26 9 14 1030.0 1030.0 0.0
20/09:00pm 13.7 10.2 8.7 72 2.5 E 17 24 9 13 1029.8 1029.8 0.0
20/08:30pm 14.2 10.7 8.8 70 2.7 E 17 22 9 12 1030.0 1030.0 0.0
20/08:00pm 14.8 10.8 9.1 68 2.9 ESE 20 28 11 15 1029.8 1029.8 0.0
20/07:30pm 15.1 11.7 9.2 68 3.0 ESE 17 30 9 16 1029.4 1029.4 0.0
20/07:00pm 15.4 12.0 10.4 72 2.6 ESE 19 30 10 16 1028.9 1028.9 0.0
20/06:30pm 15.7 11.8 10.8 72 2.6 ESE 22 33 12 18 1028.5 1028.5 0.0
20/06:00pm 16.0 11.3 10.5 70 2.9 ESE 26 46 14 25 1028.2 1028.2 0.0
20/05:57pm 16.0 10.9 10.7 71 2.8 ESE 28 46 15 25 1028.2 1028.2 0.0
20/05:30pm 16.5 10.6 10.4 67 3.2 ESE 32 44 17 24 1027.7 1027.7 0.0
20/05:02pm 17.1 11.2 10.3 64 3.6 ESE 32 50 17 27 1027.5 1027.5 0.0
20/05:00pm 17.1 11.0 10.5 65 3.5 ESE 33 50 18 27 1027.5 1027.5 0.0
20/04:30pm 17.7 11.3 10.6 63 3.8 ESE 35 56 19 30 1027.3 1027.3 0.0
20/04:18pm 17.8 11.3 10.2 61 4.0 ESE 35 54 19 29 1027.1 1027.1 0.0
20/04:00pm 18.1 11.2 10.4 60 4.1 ESE 37 52 20 28 1027.4 1027.4 0.0
20/03:30pm 18.2 11.6 10.1 59 4.3 SE 35 52 19 28 1027.8 1027.8 0.0
20/03:00pm 18.7 11.9 10.5 59 4.4 SE 37 52 20 28 1027.9 1027.9 0.0
20/02:45pm 18.5 12.0 10.2 58 4.4 SE 35 54 19 29 1027.8 1027.8 0.0
20/02:30pm 19.0 12.8 10.2 56 4.7 SE 33 48 18 26 1028.1 1028.1 0.0
20/02:00pm 19.0 12.8 9.9 55 4.8 SE 33 46 18 25 1028.2 1028.2 0.0
20/01:30pm 19.5 13.8 9.7 53 5.2 SE 30 41 16 22 1028.7 1028.7 0.0
20/01:00pm 19.7 13.6 9.7 52 5.3 SE 32 44 17 24 1028.9 1028.9 0.0
20/12:30pm 19.9 14.6 10.0 53 5.3 SE 28 43 15 23 1029.5 1029.5 0.0
20/12:00pm 19.9 14.4 9.0 49 5.7 SE 28 39 15 21 1030.0 1030.0 0.0
20/11:30am 21.6 17.0 3.9 31 8.6 E 17 28 9 15 1030.4 1030.4 0.0
20/11:00am 21.3 16.5 4.6 33 8.1 NE 19 32 10 17 1031.0 1031.0 0.0
20/10:30am 19.9 15.1 4.4 36 7.5 ENE 19 32 10 17 1031.5 1031.5 0.0
20/10:00am 19.7 15.4 5.3 39 7.0 NE 17 28 9 15 1032.1 1032.1 0.0
20/09:30am 18.9 15.2 6.1 43 6.3 ENE 15 30 8 16 1032.6 1032.6 0.0
20/09:00am 17.2 12.7 7.1 51 5.0 NE 20 30 11 16 1032.8 1032.8 0.0
20/08:30am 17.1 12.8 7.2 52 4.9 ENE 19 28 10 15 1033.2 1033.2 0.0
20/08:00am 14.9 11.0 7.1 59 3.8 NE 17 26 9 14 1033.3 1033.3 0.0
20/07:30am 13.6 10.0 6.9 64 3.2 ENE 15 22 8 12 1033.2 1033.2 0.0
20/07:00am 11.7 8.6 7.1 73 2.2 NE 13 19 7 10 1033.3 1033.3 0.0
20/06:30am 10.2 7.8 7.0 80 1.5 NE 9 13 5 7 1033.3 1033.3 0.0
20/06:00am 9.2 7.1 6.6 84 1.2 ENE 7 11 4 6 1033.2 1033.2 0.0
20/05:30am 8.6 5.7 6.4 86 1.0 ENE 11 13 6 7 1033.0 1033.0 0.0
20/05:00am 8.6 6.1 6.4 86 1.0 NE 9 11 5 6 1032.3 1032.3 0.0
20/04:30am 8.3 6.4 6.8 90 0.7 NNE 6 7 3 4 1032.0 1032.0 0.0
20/04:00am 8.3 5.8 6.5 88 0.8 NE 9 11 5 6 1031.7 1031.7 0.0
20/03:30am 8.9 5.6 6.3 84 1.2 NE 13 17 7 9 1031.5 1031.5 0.0
20/03:00am 8.9 6.0 6.3 84 1.2 ENE 11 17 6 9 1031.4 1031.4 0.0
20/02:30am 8.9 6.0 6.3 84 1.2 ENE 11 15 6 8 1031.5 1031.5 0.0
20/02:00am 9.3 6.0 6.2 81 1.4 ENE 13 19 7 10 1031.5 1031.5 0.0
20/01:30am 9.5 5.9 6.7 83 1.3 NE 15 19 8 10 1031.5 1031.5 0.0
20/01:00am 9.5 7.0 6.7 83 1.3 ENE 9 13 5 7 1031.5 1031.5 0.0
20/12:30am 9.9 7.4 6.7 80 1.5 ENE 9 13 5 7 1031.7 1031.7 0.0
20/12:00am 10.6 7.9 7.2 79 1.6 NE 11 15 6 8 1032.3 1032.3 0.0
 
Date/Time
WST
Temp
°C
App
Temp
°C
Dew
Point
°C
Rel
Hum
%
Delta-T
°C
Wind Press
QNH
hPa
Press
MSL
hPa
Rain since
9am
mm
Dir  Spd
km/h
Gust
km/h
Spd
kts
Gust
kts
19/11:30pm 10.9 8.0 6.6 75 2.0 ENE 11 15 6 8 1032.1 1032.1 0.0
19/11:00pm 11.1 8.2 6.6 74 2.1 ENE 11 17 6 9 1031.8 1031.8 0.0
19/10:30pm 11.5 8.7 6.8 73 2.2 E 11 17 6 9 1031.7 1031.7 0.0
19/10:00pm 11.6 8.9 7.2 74 2.1 ENE 11 17 6 9 1031.9 1031.9 0.0
19/09:30pm 12.0 9.9 8.1 77 1.9 ENE 9 13 5 7 1031.9 1031.9 0.0
19/09:00pm 12.7 9.8 8.2 74 2.2 E 13 17 7 9 1031.9 1031.9 0.0
19/08:30pm 13.9 11.1 8.5 70 2.7 E 13 20 7 11 1031.7 1031.7 0.0
19/08:00pm 14.4 10.2 8.4 67 3.0 ESE 20 32 11 17 1031.5 1031.5 0.0
19/07:30pm 14.5 9.8 7.8 64 3.3 ESE 22 32 12 17 1031.0 1031.0 0.0
19/07:00pm 14.7 10.1 6.3 57 4.0 ESE 20 30 11 16 1030.6 1030.6 0.0
19/06:30pm 14.9 9.0 5.8 54 4.3 ESE 26 35 14 19 1030.0 1030.0 0.0
19/06:00pm 15.1 9.5 5.6 53 4.5 SE 24 32 13 17 1029.8 1029.8 0.0
19/05:30pm 15.5 9.7 6.4 54 4.4 SE 26 35 14 19 1029.5 1029.5 0.0
19/05:00pm 15.8 9.7 6.5 54 4.5 SE 28 35 15 19 1029.1 1029.1 0.0
19/04:30pm 16.2 9.6 6.0 51 4.9 SE 30 37 16 20 1029.0 1029.0 0.0
19/04:00pm 16.5 10.3 6.2 50 5.0 SSE 28 33 15 18 1028.9 1028.9 0.0
19/03:30pm 16.9 11.5 6.2 49 5.2 SSE 24 33 13 18 1028.6 1028.6 0.0
19/03:00pm 16.9 11.5 6.2 49 5.2 SSE 24 32 13 17 1028.5 1028.5 0.0
19/02:30pm 16.7 11.0 6.7 51 4.9 SSE 26 33 14 18 1028.5 1028.5 0.0

Other Formats:

Comma delimited format used in spreadsheet applications
http://www.bom.gov.au/fwo/IDW60801/IDW60801.94638.axf

JavaScript Object Notation format (JSON) in row-major order
http://www.bom.gov.au/fwo/IDW60801/IDW60801.94638.json